createdAt,value
2022-11-26T00:02:16.863Z,7.90
2022-11-26T00:04:44.615Z,6.47
2022-11-26T00:07:12.566Z,10.48
2022-11-26T00:09:40.299Z,8.65
2022-11-26T00:12:17.030Z,8.82
2022-11-26T00:14:44.710Z,9.77
2022-11-26T00:17:13.118Z,9.18
2022-11-26T00:19:40.966Z,7.93
2022-11-26T00:22:11.357Z,7.70
2022-11-26T00:24:39.190Z,10.80
2022-11-26T00:27:07.015Z,8.60
2022-11-26T00:29:36.052Z,7.30
2022-11-26T00:32:03.814Z,8.15
2022-11-26T00:34:31.558Z,9.48
2022-11-26T00:36:59.242Z,10.07
2022-11-26T00:39:26.888Z,8.15
2022-11-26T00:41:54.569Z,9.55
2022-11-26T00:44:23.642Z,9.57
2022-11-26T00:46:52.811Z,8.82
2022-11-26T00:49:20.768Z,10.40
2022-11-26T00:51:48.561Z,9.02
2022-11-26T00:54:17.502Z,8.85
2022-11-26T00:56:45.159Z,8.43
2022-11-26T00:59:13.770Z,9.35
2022-11-26T01:01:41.524Z,9.88
2022-11-26T01:04:10.614Z,10.15
2022-11-26T01:06:39.909Z,8.30
2022-11-26T01:09:07.814Z,10.27
2022-11-26T01:11:35.513Z,10.38
2022-11-26T01:14:03.427Z,8.32
2022-11-26T01:16:32.237Z,11.40
2022-11-26T01:19:00.654Z,10.15
2022-11-26T01:21:30.695Z,8.98
2022-11-26T01:23:58.553Z,10.40
2022-11-26T01:26:27.424Z,11.55
2022-11-26T01:28:55.360Z,10.73
2022-11-26T01:31:24.658Z,9.25
2022-11-26T01:33:52.506Z,9.48
2022-11-26T01:36:26.839Z,9.50
2022-11-26T01:38:56.213Z,10.43
2022-11-26T01:41:45.325Z,10.90
2022-11-26T01:44:17.700Z,10.63
2022-11-26T01:46:45.456Z,9.50
2022-11-26T01:49:17.734Z,9.80
2022-11-26T01:51:45.638Z,9.90
2022-11-26T01:54:14.646Z,11.40
2022-11-26T01:56:43.482Z,10.10
2022-11-26T01:59:12.350Z,12.52
2022-11-26T02:01:40.106Z,11.15
2022-11-26T02:04:13.804Z,11.65
2022-11-26T02:06:42.096Z,11.02
2022-11-26T02:09:10.238Z,11.40
2022-11-26T02:11:40.414Z,11.60
2022-11-26T02:14:10.097Z,11.05
2022-11-26T02:16:59.212Z,11.13
2022-11-26T02:19:59.874Z,12.43
2022-11-26T02:22:39.005Z,11.27
2022-11-26T02:25:08.364Z,11.70
2022-11-26T02:28:09.063Z,11.43
2022-11-26T02:30:38.421Z,11.00
2022-11-26T02:33:07.291Z,10.88
2022-11-26T02:35:37.433Z,11.15
2022-11-26T02:38:06.562Z,10.93
2022-11-26T02:40:34.243Z,11.23
2022-11-26T02:43:02.097Z,10.68
2022-11-26T02:45:31.003Z,10.80
2022-11-26T02:48:01.394Z,10.73
2022-11-26T02:50:30.673Z,9.75
2022-11-26T02:52:58.782Z,11.05
2022-11-26T02:55:27.249Z,10.68
2022-11-26T02:57:54.945Z,9.93
2022-11-26T03:00:22.826Z,10.07
2022-11-26T03:02:51.957Z,12.27
2022-11-26T03:05:21.138Z,9.30
2022-11-26T03:07:50.291Z,8.98
2022-11-26T03:10:20.141Z,8.75
2022-11-26T03:12:48.303Z,8.65
2022-11-26T03:15:16.058Z,8.80
2022-11-26T03:17:43.751Z,8.70
2022-11-26T03:20:11.464Z,10.05
2022-11-26T03:22:40.565Z,8.63
2022-11-26T03:25:09.160Z,7.65
2022-11-26T03:27:36.836Z,7.47
2022-11-26T03:30:04.906Z,7.68
2022-11-26T03:32:32.627Z,8.68
2022-11-26T03:35:00.295Z,7.32
2022-11-26T03:37:27.974Z,6.90
2022-11-26T03:39:56.960Z,6.82
2022-11-26T03:42:24.706Z,7.97
2022-11-26T03:44:52.372Z,6.63
2022-11-26T03:47:20.021Z,6.78
2022-11-26T03:49:47.645Z,6.43
2022-11-26T03:52:15.329Z,6.55
2022-11-26T03:54:42.958Z,7.43
2022-11-26T03:57:12.012Z,6.97
2022-11-26T03:59:39.746Z,8.10
2022-11-26T04:02:07.475Z,7.05
2022-11-26T04:04:35.314Z,7.05
2022-11-26T04:07:03.046Z,5.88
2022-11-26T04:09:30.770Z,5.85
2022-11-26T04:11:58.441Z,5.60
2022-11-26T04:14:27.566Z,5.78
2022-11-26T04:16:55.355Z,6.90
2022-11-26T04:19:23.051Z,6.63
2022-11-26T04:21:50.702Z,6.00
2022-11-26T04:24:18.379Z,5.97
2022-11-26T04:26:46.123Z,6.22
2022-11-26T04:29:13.798Z,6.90
2022-11-26T04:31:42.833Z,7.32
2022-11-26T04:34:10.580Z,6.90
2022-11-26T04:36:39.225Z,6.78
2022-11-26T04:39:06.885Z,7.22
2022-11-26T04:41:34.568Z,6.95
2022-11-26T04:44:02.324Z,5.50
2022-11-26T04:46:30.016Z,5.93
2022-11-26T04:48:59.041Z,5.63
2022-11-26T04:51:26.709Z,6.20
2022-11-26T04:53:55.878Z,7.97
2022-11-26T04:56:34.563Z,7.03
2022-11-26T04:59:02.284Z,7.78
2022-11-26T05:01:30.107Z,7.68
2022-11-26T05:03:59.150Z,7.05
2022-11-26T05:06:26.872Z,6.90
2022-11-26T05:08:54.559Z,7.95
2022-11-26T05:11:22.216Z,6.18
2022-11-26T05:13:49.838Z,7.68
2022-11-26T05:16:17.523Z,8.07
2022-11-26T05:18:45.209Z,6.93
2022-11-26T05:21:14.235Z,7.18
2022-11-26T05:23:41.882Z,7.30
2022-11-26T05:26:09.566Z,6.95
2022-11-26T05:28:37.270Z,8.52
2022-11-26T05:31:05.077Z,7.53
2022-11-26T05:33:32.721Z,7.78
2022-11-26T05:36:00.550Z,6.68
2022-11-26T05:38:29.609Z,6.93
2022-11-26T05:40:57.285Z,7.60
2022-11-26T05:43:24.946Z,6.47
2022-11-26T05:45:52.620Z,5.88
2022-11-26T05:48:20.333Z,6.88
2022-11-26T05:50:51.618Z,7.10
2022-11-26T05:53:22.205Z,6.20
2022-11-26T05:55:51.175Z,6.28
2022-11-26T05:58:18.920Z,7.00
2022-11-26T06:00:47.023Z,7.20
2022-11-26T06:03:19.726Z,8.20
2022-11-26T06:05:47.856Z,7.13
2022-11-26T06:08:15.516Z,6.47
2022-11-26T06:10:43.321Z,7.00
2022-11-26T06:13:12.322Z,7.30
2022-11-26T06:15:39.966Z,5.05
2022-11-26T06:18:07.619Z,7.00
2022-11-26T06:20:35.379Z,7.32
2022-11-26T06:23:03.245Z,8.82
2022-11-26T06:25:31.670Z,5.10
2022-11-26T06:27:59.340Z,6.32
2022-11-26T06:30:28.315Z,6.70
2022-11-26T06:32:56.005Z,8.43
2022-11-26T06:35:23.660Z,5.82
2022-11-26T06:37:51.397Z,8.00
2022-11-26T06:40:20.390Z,7.47
2022-11-26T06:42:51.424Z,6.78
2022-11-26T06:45:19.488Z,6.95
2022-11-26T06:47:48.582Z,6.43
2022-11-26T06:50:16.406Z,7.55
2022-11-26T06:52:44.077Z,9.32
2022-11-26T06:55:11.815Z,6.75
2022-11-26T06:57:39.470Z,9.25
2022-11-26T07:00:08.531Z,6.57
2022-11-26T07:02:36.215Z,9.32
2022-11-26T07:05:05.538Z,8.48
2022-11-26T07:07:33.246Z,6.72
2022-11-26T07:10:00.966Z,9.85
2022-11-26T07:12:28.589Z,7.82
2022-11-26T07:14:56.274Z,8.10
2022-11-26T07:17:23.943Z,10.13
2022-11-26T07:19:51.617Z,7.28
2022-11-26T07:22:20.599Z,9.68
2022-11-26T07:24:48.280Z,9.07
2022-11-26T07:27:15.938Z,10.23
2022-11-26T07:29:43.599Z,7.80
2022-11-26T07:32:11.250Z,9.07
2022-11-26T07:34:39.210Z,6.90
2022-11-26T07:37:07.142Z,7.97
2022-11-26T07:39:36.113Z,7.90
2022-11-26T07:42:03.773Z,10.18
2022-11-26T07:44:31.429Z,9.50
2022-11-26T07:46:59.086Z,8.93
2022-11-26T07:49:26.821Z,8.55
2022-11-26T07:51:54.490Z,9.95
2022-11-26T07:54:22.134Z,8.95
2022-11-26T07:56:51.102Z,8.80
2022-11-26T07:59:18.741Z,9.10
2022-11-26T08:01:46.501Z,7.90
2022-11-26T08:04:14.199Z,9.65
2022-11-26T08:06:41.863Z,10.05
2022-11-26T08:09:09.503Z,7.82
2022-11-26T08:11:37.165Z,10.00
2022-11-26T08:14:07.178Z,9.10
2022-11-26T08:16:35.072Z,10.02
2022-11-26T08:19:04.326Z,10.10
2022-11-26T08:21:32.006Z,8.95
2022-11-26T08:23:59.654Z,8.40
2022-11-26T08:26:34.589Z,7.82
2022-11-26T08:29:06.330Z,9.85
2022-11-26T08:31:34.804Z,7.78
2022-11-26T08:34:03.188Z,8.95
2022-11-26T08:36:31.247Z,8.93
2022-11-26T08:38:59.359Z,9.05
2022-11-26T08:41:27.495Z,10.43
2022-11-26T08:44:10.408Z,7.60
2022-11-26T08:46:39.854Z,10.40
2022-11-26T08:49:08.001Z,10.82
2022-11-26T08:51:35.661Z,10.10
2022-11-26T08:54:03.329Z,8.48
2022-11-26T08:56:30.998Z,8.45
2022-11-26T08:58:58.855Z,8.35
2022-11-26T09:01:27.382Z,8.07
2022-11-26T09:03:57.336Z,9.15
2022-11-26T09:06:26.307Z,8.85
2022-11-26T09:09:11.616Z,7.72
2022-11-26T09:11:40.586Z,8.13
2022-11-26T09:14:08.278Z,10.55
2022-11-26T09:16:36.197Z,11.23
2022-11-26T09:19:06.091Z,13.40
2022-11-26T09:21:34.050Z,13.13
2022-11-26T09:24:01.888Z,15.63
2022-11-26T09:26:30.685Z,18.48
2022-11-26T09:28:58.474Z,18.85
2022-11-26T09:31:26.325Z,18.00
2022-11-26T09:33:55.644Z,14.48
2022-11-26T09:36:24.653Z,17.80
2022-11-26T09:38:54.513Z,18.20
2022-11-26T09:41:39.857Z,13.32
2022-11-26T09:44:23.107Z,17.13
2022-11-26T09:47:11.426Z,15.35
2022-11-26T09:49:44.427Z,12.98
2022-11-26T09:52:13.400Z,16.38
2022-11-26T09:54:41.388Z,17.67
2022-11-26T09:57:15.461Z,15.18
2022-11-26T09:59:43.292Z,17.70
2022-11-26T10:02:12.201Z,14.88
2022-11-26T10:04:40.863Z,15.73
2022-11-26T10:07:15.335Z,12.60
2022-11-26T10:09:50.317Z,14.30
2022-11-26T10:12:26.468Z,13.77
2022-11-26T10:14:57.131Z,16.15
2022-11-26T10:17:41.035Z,21.13
2022-11-26T10:20:27.142Z,20.00
2022-11-26T10:22:58.286Z,17.52
2022-11-26T10:25:27.797Z,18.38
2022-11-26T10:27:55.978Z,17.35
2022-11-26T10:30:24.946Z,14.60
2022-11-26T10:32:52.895Z,15.73
2022-11-26T10:35:21.612Z,13.80
2022-11-26T10:37:49.394Z,21.15
2022-11-26T10:40:25.551Z,27.15
2022-11-26T10:42:58.291Z,18.60
2022-11-26T10:45:27.185Z,19.15
2022-11-26T10:47:54.850Z,19.42
2022-11-26T10:53:20.111Z,19.65
2022-11-26T10:55:49.106Z,23.00
2022-11-26T10:58:17.974Z,19.05
2022-11-26T11:00:47.077Z,64.03
2022-11-26T11:03:17.010Z,16.88
2022-11-26T11:05:44.924Z,15.13
2022-11-26T11:08:15.326Z,15.57
2022-11-26T11:10:54.700Z,11.18
2022-11-26T11:13:23.022Z,18.40
2022-11-26T11:15:50.765Z,27.00
2022-11-26T11:18:20.127Z,30.08
2022-11-26T11:20:53.183Z,23.10
2022-11-26T11:23:34.783Z,25.92
2022-11-26T11:26:15.823Z,25.02
2022-11-26T11:28:48.206Z,24.13
2022-11-26T11:31:17.150Z,24.10
2022-11-26T11:33:44.933Z,25.67
2022-11-26T11:36:21.632Z,46.67
2022-11-26T11:38:50.483Z,39.35
2022-11-26T11:41:31.350Z,35.40
2022-11-26T11:44:01.119Z,46.03
2022-11-26T11:46:45.280Z,40.55
2022-11-26T11:49:17.187Z,25.08
2022-11-26T11:51:47.684Z,32.38
2022-11-26T11:54:18.825Z,23.77
2022-11-26T11:56:50.558Z,24.30
2022-11-26T11:59:37.116Z,15.23
2022-11-26T12:02:32.124Z,21.23
2022-11-26T12:05:07.677Z,12.20
2022-11-26T12:07:39.723Z,15.10
2022-11-26T12:10:14.967Z,11.98
2022-11-26T12:12:45.682Z,19.35
2022-11-26T12:15:16.060Z,13.73
2022-11-26T12:17:46.028Z,14.73
2022-11-26T12:20:17.992Z,16.27
2022-11-26T12:22:47.028Z,15.52
2022-11-26T12:25:20.812Z,16.98
2022-11-26T12:27:52.462Z,9.00
2022-11-26T12:30:22.075Z,14.15
2022-11-26T12:32:52.019Z,11.55
2022-11-26T12:35:26.078Z,14.77
2022-11-26T12:37:53.787Z,16.58
2022-11-26T12:40:29.819Z,12.40
2022-11-26T12:43:01.473Z,12.50
2022-11-26T12:45:42.571Z,11.57
2022-11-26T12:48:16.194Z,13.82
2022-11-26T12:50:45.704Z,11.55
2022-11-26T12:53:16.635Z,11.02
2022-11-26T12:55:46.467Z,8.40
2022-11-26T12:58:16.687Z,12.30
2022-11-26T13:00:44.406Z,11.80
2022-11-26T13:03:15.773Z,10.07
2022-11-26T13:05:51.438Z,8.60
2022-11-26T13:08:26.683Z,9.32
2022-11-26T13:11:08.725Z,11.65
2022-11-26T13:13:42.948Z,9.25
2022-11-26T13:16:15.403Z,9.00
2022-11-26T13:18:44.447Z,11.23
2022-11-26T13:21:24.194Z,8.45
2022-11-26T13:24:02.317Z,13.30
2022-11-26T13:26:40.239Z,14.05
2022-11-26T13:29:30.884Z,14.45
2022-11-26T13:32:12.748Z,14.32
2022-11-26T13:34:51.079Z,14.32
2022-11-26T13:37:29.542Z,14.85
2022-11-26T13:40:37.401Z,13.70
2022-11-26T13:43:30.206Z,21.13
2022-11-26T13:46:05.888Z,17.83
2022-11-26T13:48:36.988Z,14.15
2022-11-26T13:51:07.296Z,17.30
2022-11-26T13:53:36.885Z,19.52
2022-11-26T13:56:05.999Z,20.35
2022-11-26T13:58:36.074Z,31.15
2022-11-26T14:01:30.023Z,25.50
2022-11-26T14:03:57.990Z,47.28
2022-11-26T14:06:27.262Z,27.05
2022-11-26T14:08:55.030Z,16.52
2022-11-26T14:11:59.227Z,42.25
2022-11-26T14:14:34.134Z,33.85
2022-11-26T14:17:20.206Z,37.40
2022-11-26T14:20:05.291Z,23.25
2022-11-26T14:22:33.649Z,31.60
2022-11-26T14:25:02.699Z,20.60
2022-11-26T14:27:32.153Z,23.08
2022-11-26T14:30:14.630Z,30.10
2022-11-26T14:32:46.402Z,33.17
2022-11-26T14:35:18.733Z,26.52
2022-11-26T14:37:51.872Z,20.73
2022-11-26T14:40:22.380Z,17.40
2022-11-26T14:42:50.144Z,19.05
2022-11-26T14:45:19.125Z,27.95
2022-11-26T14:47:49.973Z,43.22
2022-11-26T14:50:18.251Z,17.15
2022-11-26T14:52:45.937Z,14.00
2022-11-26T14:55:17.982Z,24.67
2022-11-26T14:57:46.909Z,17.05
2022-11-26T15:00:23.087Z,24.98
2022-11-26T15:02:52.641Z,41.15
2022-11-26T15:05:22.091Z,27.08
2022-11-26T15:07:58.300Z,21.92
2022-11-26T15:10:26.159Z,40.75
2022-11-26T15:12:53.915Z,32.60
2022-11-26T15:15:23.055Z,57.35
2022-11-26T15:18:17.728Z,47.70
2022-11-26T15:20:48.892Z,33.22
2022-11-26T15:23:18.889Z,44.60
2022-11-26T15:25:49.521Z,26.33
2022-11-26T15:28:17.917Z,18.67
2022-11-26T15:30:54.529Z,16.92
2022-11-26T15:33:23.712Z,43.47
2022-11-26T15:35:56.550Z,23.85
2022-11-26T15:38:24.750Z,16.73
2022-11-26T15:40:53.482Z,22.67
2022-11-26T15:43:23.902Z,22.40
2022-11-26T15:45:51.882Z,19.52
2022-11-26T15:48:27.772Z,19.88
2022-11-26T15:51:00.494Z,22.40
2022-11-26T15:53:29.437Z,19.08
2022-11-26T15:55:57.441Z,21.92
2022-11-26T15:58:27.012Z,20.48
2022-11-26T16:00:55.846Z,46.78
2022-11-26T16:03:43.824Z,42.88
2022-11-26T16:06:31.448Z,21.80
2022-11-26T16:09:02.286Z,30.08
2022-11-26T16:11:31.097Z,15.45
2022-11-26T16:13:58.780Z,16.63
2022-11-26T16:16:26.794Z,14.15
2022-11-26T16:18:55.772Z,14.65
2022-11-26T16:21:24.446Z,17.35
2022-11-26T16:23:54.596Z,14.07
2022-11-26T16:26:22.576Z,20.50
2022-11-26T16:28:50.366Z,12.60
2022-11-26T16:31:18.602Z,14.10
2022-11-26T16:33:46.450Z,21.52
2022-11-26T16:36:22.179Z,15.07
2022-11-26T16:38:49.962Z,14.20
2022-11-26T16:41:19.847Z,12.38
2022-11-26T16:43:47.730Z,16.92
2022-11-26T16:46:17.064Z,13.85
2022-11-26T16:48:45.512Z,15.38
2022-11-26T16:51:13.227Z,18.67
2022-11-26T16:53:40.990Z,28.83
2022-11-26T16:58:49.557Z,21.70
2022-11-26T17:01:17.315Z,17.38
2022-11-26T17:03:45.050Z,15.30
2022-11-26T17:06:14.307Z,20.63
2022-11-26T17:08:46.512Z,16.83
2022-11-26T17:11:17.357Z,15.40
2022-11-26T17:13:45.034Z,13.73
2022-11-26T17:16:14.680Z,12.63
2022-11-26T17:18:42.497Z,19.83
2022-11-26T17:21:10.191Z,15.02
2022-11-26T17:23:37.910Z,14.80
2022-11-26T17:26:12.055Z,13.80
2022-11-26T17:28:39.749Z,12.98
2022-11-26T17:31:07.572Z,15.07
2022-11-26T17:33:36.644Z,13.32
2022-11-26T17:36:04.771Z,12.75
2022-11-26T17:38:32.551Z,12.75
2022-11-26T17:41:00.302Z,13.63
2022-11-26T17:43:28.031Z,9.75
2022-11-26T17:45:55.832Z,8.70
2022-11-26T17:48:26.680Z,14.93
2022-11-26T17:50:56.043Z,11.13
2022-11-26T17:53:23.779Z,9.85
2022-11-26T17:55:51.499Z,11.30
2022-11-26T17:58:19.201Z,11.38
2022-11-26T18:00:46.909Z,10.85
2022-11-26T18:03:14.608Z,9.18
2022-11-26T18:05:42.609Z,7.40
2022-11-26T18:08:11.829Z,12.15
2022-11-26T18:10:40.313Z,10.77
2022-11-26T18:13:08.078Z,12.15
2022-11-26T18:15:35.870Z,9.75
2022-11-26T18:18:04.418Z,7.90
2022-11-26T18:20:32.178Z,7.70
2022-11-26T18:23:00.980Z,9.10
2022-11-26T18:25:30.383Z,11.43
2022-11-26T18:27:58.099Z,9.00
2022-11-26T18:30:25.849Z,8.75
2022-11-26T18:32:53.597Z,8.15
2022-11-26T18:35:22.782Z,9.20
2022-11-26T18:37:51.078Z,8.57
2022-11-26T18:40:18.968Z,10.57
2022-11-26T18:42:52.270Z,8.43
2022-11-26T18:45:20.071Z,7.15
2022-11-26T18:47:47.803Z,7.70
2022-11-26T18:50:15.506Z,9.45
2022-11-26T18:52:43.240Z,7.57
2022-11-26T18:55:10.971Z,10.30
2022-11-26T18:57:38.674Z,7.07
2022-11-26T19:00:10.789Z,7.82
2022-11-26T19:02:38.591Z,7.20
2022-11-26T19:05:07.909Z,7.30
2022-11-26T19:07:35.627Z,8.20
2022-11-26T19:10:03.560Z,8.68
2022-11-26T19:12:31.472Z,6.72
2022-11-26T19:14:59.186Z,7.50
2022-11-26T19:17:28.235Z,8.82
2022-11-26T19:19:55.889Z,7.70
2022-11-26T19:22:23.660Z,7.70
2022-11-26T19:24:51.389Z,8.23
2022-11-26T19:27:19.078Z,8.82
2022-11-26T19:29:46.794Z,8.77
2022-11-26T19:32:14.482Z,9.68
2022-11-26T19:34:43.493Z,10.25
2022-11-26T19:37:11.225Z,10.35
2022-11-26T19:39:39.433Z,11.05
2022-11-26T19:42:07.389Z,12.52
2022-11-26T19:44:35.242Z,12.60
2022-11-26T19:47:03.016Z,12.60
2022-11-26T19:49:30.718Z,14.93
2022-11-26T19:51:59.863Z,15.68
2022-11-26T19:54:27.573Z,16.80
2022-11-26T19:56:55.387Z,17.33
2022-11-26T19:59:23.139Z,20.38
2022-11-26T20:01:50.958Z,20.67
2022-11-26T20:04:19.479Z,22.98
2022-11-26T20:06:47.389Z,23.48
2022-11-26T20:09:16.437Z,25.75
2022-11-26T20:11:44.191Z,24.67
2022-11-26T20:14:12.010Z,27.63
2022-11-26T20:16:41.032Z,27.85
2022-11-26T20:19:09.023Z,31.45
2022-11-26T20:21:36.967Z,32.13
2022-11-26T20:24:07.960Z,33.28
2022-11-26T20:26:37.710Z,33.20
2022-11-26T20:29:06.936Z,37.13
2022-11-26T20:31:35.227Z,37.15
2022-11-26T20:34:03.220Z,38.90
2022-11-26T20:36:30.924Z,42.25
2022-11-26T20:39:00.196Z,44.28
2022-11-26T20:41:28.153Z,43.40
2022-11-26T20:43:59.505Z,45.13
2022-11-26T20:46:27.974Z,49.35
2022-11-26T20:48:56.356Z,52.30
2022-11-26T20:51:24.364Z,51.28
2022-11-26T20:53:52.529Z,52.00
2022-11-26T20:56:20.973Z,56.70
2022-11-26T20:58:48.679Z,57.63
2022-11-26T21:01:18.527Z,60.72
2022-11-26T21:03:46.529Z,62.67
2022-11-26T21:06:14.603Z,65.30
2022-11-26T21:08:42.491Z,66.50
2022-11-26T21:11:10.514Z,71.30
2022-11-26T21:13:38.652Z,77.35
2022-11-26T21:16:07.730Z,78.93
2022-11-26T21:18:36.885Z,81.00
2022-11-26T21:21:08.973Z,86.97
2022-11-26T21:23:38.106Z,91.35
2022-11-26T21:26:07.019Z,97.40
2022-11-26T21:28:34.722Z,97.95
2022-11-26T21:31:05.920Z,105.20
2022-11-26T21:33:33.748Z,106.72
2022-11-26T21:36:07.686Z,109.50
2022-11-26T21:38:35.559Z,117.45
2022-11-26T21:41:06.133Z,129.32
2022-11-26T21:43:33.994Z,125.18
2022-11-26T21:46:03.530Z,131.32
2022-11-26T21:48:31.483Z,135.25
2022-11-26T21:50:59.343Z,141.13
2022-11-26T21:53:28.467Z,143.25
2022-11-26T21:55:56.234Z,146.02
2022-11-26T21:58:23.973Z,150.75
2022-11-26T22:00:51.667Z,156.45
2022-11-26T22:03:19.420Z,157.32
2022-11-26T22:05:47.166Z,163.68
2022-11-26T22:08:15.047Z,162.98
2022-11-26T22:10:44.098Z,172.15
2022-11-26T22:13:11.867Z,175.32
2022-11-26T22:15:42.252Z,182.15
2022-11-26T22:18:09.963Z,180.90
2022-11-26T22:20:39.589Z,192.38
2022-11-26T22:23:07.284Z,192.70
2022-11-26T22:25:35.135Z,203.32
2022-11-26T22:28:04.296Z,209.32
2022-11-26T22:30:32.049Z,210.77
2022-11-26T22:33:01.430Z,215.65
2022-11-26T22:35:29.142Z,221.00
2022-11-26T22:37:57.198Z,226.25
2022-11-26T22:40:24.848Z,230.52
2022-11-26T22:42:55.029Z,226.20
2022-11-26T22:45:24.377Z,235.35
2022-11-26T22:47:52.970Z,243.38
2022-11-26T22:50:20.841Z,240.88
2022-11-26T22:52:48.665Z,245.50
2022-11-26T22:55:16.488Z,248.93
2022-11-26T22:57:44.210Z,242.93
2022-11-26T23:00:15.021Z,256.15
2022-11-26T23:02:44.264Z,264.88
2022-11-26T23:05:12.353Z,255.55
2022-11-26T23:07:40.082Z,260.70
2022-11-26T23:10:08.641Z,261.05
2022-11-26T23:12:36.297Z,273.13
2022-11-26T23:15:04.092Z,269.25
2022-11-26T23:17:31.747Z,278.52
2022-11-26T23:20:00.763Z,275.63
2022-11-26T23:22:28.422Z,284.15
2022-11-26T23:24:56.117Z,286.27
2022-11-26T23:27:23.778Z,273.55
2022-11-26T23:29:51.440Z,283.13
2022-11-26T23:32:19.100Z,280.58
2022-11-26T23:34:48.273Z,284.80
2022-11-26T23:37:17.283Z,283.38
2022-11-26T23:39:44.939Z,287.67
2022-11-26T23:42:12.599Z,286.17
2022-11-26T23:44:40.229Z,287.70
2022-11-26T23:47:07.872Z,283.98
2022-11-26T23:49:35.513Z,291.13
2022-11-26T23:52:03.148Z,291.27
2022-11-26T23:54:32.113Z,288.20
2022-11-26T23:56:59.746Z,285.20
2022-11-26T23:59:27.422Z,290.35
